Time;durP1;ratioP1;P1;durP2;ratioP2;P2;SDS_P1;SDS_P2;PMS_P1;PMS_P2;Temp;Humidity;BMP_temperature;BMP_pressure;BME280_temperature;BME280_humidity;BME280_pressure;Samples;Min_cycle;Max_cycle;Signal;HPM_P1;HPM_P2
2023/06/06 00:01:36;;;;;;;0.90;0.90;;;23.40;52.50;;;;;;222110;1261;22531;-53
2023/06/06 00:06:44;;;;;;;0.80;0.80;;;23.40;52.10;;;;;;222375;1265;25341;-53
2023/06/06 00:11:48;;;;;;;0.70;0.70;;;23.40;52.80;;;;;;222160;1269;24334;-57
2023/06/06 00:16:55;;;;;;;1.00;0.80;;;23.40;52.20;;;;;;222311;1265;22521;-54
2023/06/06 00:22:01;;;;;;;0.80;0.80;;;23.40;52.20;;;;;;222139;1269;22645;-51
2023/06/06 00:27:06;;;;;;;1.10;0.80;;;23.40;52.60;;;;;;222330;1263;22514;-55
2023/06/06 00:32:10;;;;;;;1.00;1.00;;;23.40;52.30;;;;;;222435;1268;24183;-52
2023/06/06 00:37:15;;;;;;;1.00;0.90;;;23.30;52.30;;;;;;222549;1268;23879;-51
2023/06/06 00:42:19;;;;;;;0.80;0.80;;;23.30;52.30;;;;;;222536;1268;24045;-52
2023/06/06 00:47:24;;;;;;;0.90;0.90;;;23.30;52.30;;;;;;222552;1268;22508;-54
2023/06/06 00:52:28;;;;;;;0.60;0.60;;;23.30;52.50;;;;;;222598;1266;22754;-55
2023/06/06 00:57:32;;;;;;;1.10;1.00;;;23.30;52.30;;;;;;222336;1268;23768;-52
2023/06/06 01:02:39;;;;;;;0.90;0.80;;;23.30;52.30;;;;;;222513;1268;23158;-55
2023/06/06 01:07:43;;;;;;;1.10;1.00;;;23.30;52.40;;;;;;222820;1268;22508;-53
2023/06/06 01:13:13;;;;;;;0.90;0.90;;;23.30;52.40;;;;;;222706;1265;26696;-52
2023/06/06 01:18:19;;;;;;;0.90;0.90;;;23.30;52.40;;;;;;222584;1253;24401;-52
2023/06/06 01:23:23;;;;;;;1.90;1.00;;;23.30;52.40;;;;;;222820;1264;22620;-53
2023/06/06 01:28:28;;;;;;;0.90;0.90;;;23.30;52.30;;;;;;222423;1268;23138;-53
2023/06/06 01:34:11;;;;;;;1.10;1.00;;;23.30;52.50;;;;;;222561;1268;25323;-53
2023/06/06 01:39:19;;;;;;;0.90;0.90;;;23.30;52.60;;;;;;221275;1274;22517;-50
2023/06/06 01:44:23;;;;;;;0.90;0.90;;;23.30;52.80;;;;;;221208;1270;22521;-50
2023/06/06 01:49:28;;;;;;;1.10;1.00;;;23.30;52.50;;;;;;221107;1275;25319;-56
2023/06/06 01:54:34;;;;;;;0.90;0.90;;;23.30;52.50;;;;;;221228;1273;25668;-56
2023/06/06 01:59:38;;;;;;;0.80;0.80;;;23.30;52.50;;;;;;221085;1271;22526;-53
2023/06/06 02:04:43;;;;;;;0.80;0.80;;;23.30;52.90;;;;;;221160;1275;23695;-53
2023/06/06 02:09:47;;;;;;;1.20;1.00;;;23.20;52.10;;;;;;221183;1274;22520;-52
2023/06/06 02:14:54;;;;;;;0.90;0.90;;;23.20;52.50;;;;;;221830;1268;451014;-54
2023/06/06 02:19:58;;;;;;;1.30;1.20;;;23.20;52.50;;;;;;222509;1263;22576;-54
2023/06/06 02:25:03;;;;;;;1.00;1.00;;;23.30;53.00;;;;;;222618;1268;22657;-55
2023/06/06 02:30:08;;;;;;;0.90;0.90;;;23.20;52.10;;;;;;222580;1268;24268;-52
2023/06/06 02:35:12;;;;;;;1.10;1.00;;;23.20;52.60;;;;;;222646;1268;24241;-52
2023/06/06 02:40:17;;;;;;;1.10;1.00;;;23.20;52.60;;;;;;222304;1268;22585;-49
2023/06/06 02:45:22;;;;;;;1.00;1.00;;;23.20;53.00;;;;;;222429;1268;22616;-50
2023/06/06 02:50:28;;;;;;;1.60;1.00;;;23.20;52.60;;;;;;222647;1262;24309;-50
2023/06/06 02:55:32;;;;;;;1.20;1.20;;;23.20;52.60;;;;;;222562;1262;22773;-52
2023/06/06 03:00:38;;;;;;;0.70;0.70;;;23.20;52.50;;;;;;222388;1268;22503;-52
2023/06/06 03:05:42;;;;;;;1.00;1.00;;;23.20;52.70;;;;;;222433;1268;22527;-54
2023/06/06 03:10:47;;;;;;;1.10;1.10;;;23.20;52.70;;;;;;222456;1268;22513;-53
2023/06/06 03:15:51;;;;;;;1.40;1.30;;;23.20;53.00;;;;;;222622;1268;24362;-56
2023/06/06 03:20:57;;;;;;;1.30;1.20;;;23.10;52.50;;;;;;222432;1268;22528;-53
2023/06/06 03:26:04;;;;;;;1.00;1.00;;;23.20;52.70;;;;;;222629;1268;26618;-52
2023/06/06 03:31:11;;;;;;;1.00;1.00;;;23.10;52.70;;;;;;222822;1262;24639;-54
2023/06/06 03:36:24;;;;;;;0.90;0.90;;;23.10;52.80;;;;;;222711;1267;22509;-54
2023/06/06 03:41:30;;;;;;;0.90;0.90;;;23.20;52.70;;;;;;222352;1268;22527;-52
2023/06/06 03:46:34;;;;;;;1.60;1.50;;;23.10;52.70;;;;;;222588;1268;25381;-54
2023/06/06 03:51:40;;;;;;;1.10;1.10;;;23.10;52.60;;;;;;222744;1268;22623;-54
2023/06/06 03:56:44;;;;;;;1.20;1.10;;;23.20;52.80;;;;;;222625;1268;24074;-52
2023/06/06 04:01:53;;;;;;;1.30;1.20;;;23.10;52.70;;;;;;222456;1256;24187;-55
2023/06/06 04:06:59;;;;;;;1.10;1.10;;;23.10;52.70;;;;;;222806;1257;24373;-56
2023/06/06 04:12:05;;;;;;;1.40;1.30;;;23.20;52.80;;;;;;222283;1268;22525;-52
2023/06/06 04:17:10;;;;;;;1.10;1.10;;;23.10;52.60;;;;;;222521;1259;22567;-55
2023/06/06 04:22:15;;;;;;;1.00;1.00;;;23.10;53.10;;;;;;222686;1268;24257;-51
2023/06/06 04:27:23;;;;;;;1.20;1.10;;;23.10;52.80;;;;;;222358;1268;24184;-53
2023/06/06 04:32:30;;;;;;;1.10;1.10;;;23.10;52.70;;;;;;222689;1268;25472;-54
2023/06/06 04:37:36;;;;;;;0.90;0.90;;;23.10;52.70;;;;;;222826;1268;22753;-54
2023/06/06 04:42:40;;;;;;;1.10;1.10;;;23.10;52.70;;;;;;222807;1268;22607;-53
2023/06/06 04:47:44;;;;;;;1.00;1.00;;;23.10;53.20;;;;;;222444;1268;22782;-52
2023/06/06 04:52:49;;;;;;;0.90;0.90;;;23.10;52.70;;;;;;222759;1268;22519;-54
2023/06/06 04:57:55;;;;;;;1.20;1.10;;;23.10;52.70;;;;;;222651;1268;22636;-53
2023/06/06 05:02:59;;;;;;;0.90;0.90;;;23.10;52.70;;;;;;222437;1268;24196;-52
2023/06/06 05:08:03;;;;;;;1.50;1.40;;;23.10;52.70;;;;;;222562;1268;25483;-51
2023/06/06 05:13:08;;;;;;;1.10;1.00;;;23.10;52.70;;;;;;222437;1268;22584;-52
2023/06/06 05:18:12;;;;;;;1.30;1.20;;;23.10;52.70;;;;;;222893;1266;22504;-52
2023/06/06 05:23:16;;;;;;;1.20;1.10;;;23.10;52.70;;;;;;222316;1268;22508;-49
2023/06/06 05:28:20;;;;;;;1.20;1.10;;;23.10;52.70;;;;;;222690;1245;22505;-54
2023/06/06 05:33:30;;;;;;;1.20;1.20;;;23.10;52.70;;;;;;222409;1269;22551;-54
2023/06/06 05:38:34;;;;;;;1.20;1.10;;;23.10;53.40;;;;;;222523;1269;23583;-56
2023/06/06 05:43:38;;;;;;;0.90;0.90;;;23.10;52.70;;;;;;222185;1269;22632;-49
2023/06/06 05:48:42;;;;;;;1.20;1.20;;;23.10;53.00;;;;;;222128;1269;23944;-53
2023/06/06 05:53:46;;;;;;;1.00;1.00;;;23.10;52.60;;;;;;222387;1269;22616;-52
2023/06/06 05:58:52;;;;;;;0.90;0.90;;;23.10;52.60;;;;;;222394;1268;22625;-51
2023/06/06 06:03:57;;;;;;;1.40;1.30;;;23.10;52.50;;;;;;222572;1266;24739;-51
2023/06/06 06:09:03;;;;;;;1.30;1.20;;;23.10;52.50;;;;;;222802;1265;25264;-54
2023/06/06 06:14:07;;;;;;;1.10;1.10;;;23.20;52.30;;;;;;222611;1266;22511;-53
2023/06/06 06:19:11;;;;;;;1.30;1.20;;;23.20;52.70;;;;;;222539;1268;23358;-53
2023/06/06 06:24:15;;;;;;;1.20;1.10;;;23.30;52.20;;;;;;222514;1268;22638;-55
2023/06/06 06:29:20;;;;;;;1.30;1.20;;;23.30;52.10;;;;;;222559;1268;25962;-55
2023/06/06 06:34:24;;;;;;;1.20;1.10;;;23.30;52.10;;;;;;222621;1268;25456;-50
2023/06/06 06:39:28;;;;;;;0.80;0.80;;;23.30;52.10;;;;;;222865;1266;22533;-53
2023/06/06 06:44:33;;;;;;;1.00;1.00;;;23.30;52.00;;;;;;222391;1268;25581;-52
2023/06/06 06:49:41;;;;;;;1.10;1.10;;;23.30;52.00;;;;;;222612;1268;22517;-52
2023/06/06 06:54:58;;;;;;;1.30;1.30;;;23.30;52.00;;;;;;222556;1268;24182;-55
2023/06/06 07:00:15;;;;;;;1.10;1.10;;;23.30;52.00;;;;;;222524;1265;22859;-56
2023/06/06 07:05:19;;;;;;;0.80;0.80;;;23.30;51.90;;;;;;222254;1268;22973;-53
2023/06/06 07:10:25;;;;;;;1.00;1.00;;;23.40;52.20;;;;;;222649;1268;22545;-53
2023/06/06 07:15:29;;;;;;;1.50;0.90;;;23.40;51.80;;;;;;222653;1268;22535;-51
2023/06/06 07:20:33;;;;;;;0.90;0.90;;;23.40;51.70;;;;;;222498;1268;22631;-54
2023/06/06 07:25:37;;;;;;;1.00;1.00;;;23.40;52.10;;;;;;222443;1268;22570;-55
2023/06/06 07:30:41;;;;;;;1.30;1.20;;;23.40;51.60;;;;;;222621;1268;22521;-54
2023/06/06 07:35:46;;;;;;;0.90;0.90;;;23.40;51.60;;;;;;222402;1268;22626;-53
2023/06/06 07:40:50;;;;;;;0.90;0.90;;;23.50;51.60;;;;;;222626;1268;22511;-52
2023/06/06 07:45:54;;;;;;;1.20;1.00;;;23.50;51.90;;;;;;222634;1268;22623;-54
2023/06/06 07:50:59;;;;;;;0.90;0.90;;;23.50;52.00;;;;;;222659;1268;23884;-54
2023/06/06 07:56:03;;;;;;;1.10;1.00;;;23.60;51.50;;;;;;222579;1269;22629;-53
2023/06/06 08:01:11;;;;;;;1.00;1.00;;;23.60;51.50;;;;;;222609;1268;24735;-53
2023/06/06 08:06:18;;;;;;;1.00;1.00;;;23.60;51.50;;;;;;222688;1268;25585;-54
2023/06/06 08:11:22;;;;;;;1.10;1.10;;;23.60;51.60;;;;;;222555;1268;24331;-56
2023/06/06 08:16:26;;;;;;;1.10;1.10;;;23.60;51.50;;;;;;222517;1268;22505;-57
2023/06/06 08:21:31;;;;;;;0.90;0.90;;;23.70;51.50;;;;;;222433;1268;24212;-53
2023/06/06 08:26:38;;;;;;;1.30;1.30;;;23.70;51.30;;;;;;222953;1268;24180;-53
2023/06/06 08:31:46;;;;;;;1.30;1.20;;;23.70;51.20;;;;;;222439;1268;22509;-55
2023/06/06 08:36:51;;;;;;;1.40;1.30;;;23.80;51.30;;;;;;222302;1269;24229;-52
2023/06/06 08:41:57;;;;;;;1.10;1.00;;;23.80;51.20;;;;;;222164;1269;22639;-54
2023/06/06 08:47:02;;;;;;;1.00;1.00;;;23.70;51.20;;;;;;222190;1269;22625;-52
2023/06/06 08:52:09;;;;;;;1.30;1.20;;;23.80;51.20;;;;;;222598;1265;24236;-52
2023/06/06 08:57:19;;;;;;;1.20;1.00;;;23.80;51.30;;;;;;222382;1269;22517;-51
2023/06/06 09:02:25;;;;;;;1.10;1.10;;;23.90;51.20;;;;;;222674;1269;23994;-53
2023/06/06 09:07:30;;;;;;;1.30;1.20;;;23.80;51.10;;;;;;222253;1269;23937;-52
2023/06/06 09:12:42;;;;;;;1.20;1.10;;;23.90;51.30;;;;;;222255;1268;22677;-52
2023/06/06 09:17:47;;;;;;;1.40;1.30;;;23.90;51.10;;;;;;222168;1269;22753;-52
2023/06/06 09:22:52;;;;;;;1.10;1.10;;;23.90;51.10;;;;;;222263;1269;22785;-51
2023/06/06 09:28:01;;;;;;;0.90;0.90;;;23.90;51.10;;;;;;222242;1269;22638;-52
2023/06/06 09:33:05;;;;;;;1.10;1.10;;;23.90;51.20;;;;;;222459;1266;22588;-53
2023/06/06 09:38:18;;;;;;;0.90;0.90;;;23.90;50.70;;;;;;222590;1268;22581;-53
2023/06/06 09:43:27;;;;;;;1.10;1.10;;;23.90;51.20;;;;;;222404;1268;24365;-51
2023/06/06 09:48:32;;;;;;;1.20;1.20;;;23.90;51.20;;;;;;222655;1245;22635;-52
2023/06/06 09:53:40;;;;;;;0.90;0.90;;;23.90;51.20;;;;;;222752;1268;22563;-54
2023/06/06 09:58:46;;;;;;;1.00;1.00;;;24.00;51.20;;;;;;222620;1268;24056;-50
2023/06/06 10:03:51;;;;;;;1.20;1.10;;;24.00;51.20;;;;;;222590;1268;22511;-49
2023/06/06 10:08:58;;;;;;;1.10;1.10;;;23.90;51.50;;;;;;222781;1268;22518;-57
2023/06/06 10:14:06;;;;;;;1.30;1.30;;;24.00;51.60;;;;;;222509;1268;22630;-54
2023/06/06 10:19:13;;;;;;;1.10;1.10;;;24.00;51.30;;;;;;222684;1268;24691;-50
2023/06/06 10:24:17;;;;;;;1.00;1.00;;;24.00;51.20;;;;;;222724;1266;24169;-51
2023/06/06 10:29:50;;;;;;;0.90;0.90;;;24.00;51.20;;;;;;222577;1268;22639;-49
2023/06/06 10:34:56;;;;;;;0.90;0.90;;;24.00;51.20;;;;;;222449;1267;25369;-51
2023/06/06 10:40:05;;;;;;;1.40;1.20;;;24.10;51.30;;;;;;222579;1269;22776;-54
2023/06/06 10:45:09;;;;;;;0.90;0.90;;;24.10;51.10;;;;;;222102;1269;25314;-55
2023/06/06 10:50:13;;;;;;;0.80;0.80;;;24.10;51.00;;;;;;222351;1269;22565;-55
2023/06/06 10:55:20;;;;;;;0.70;0.70;;;24.10;50.90;;;;;;222438;1269;25598;-51
2023/06/06 11:00:25;;;;;;;0.70;0.70;;;24.20;50.90;;;;;;221965;1247;22523;-53
2023/06/06 11:05:29;;;;;;;1.10;1.10;;;24.20;50.80;;;;;;222198;1270;22573;-52
2023/06/06 11:10:46;;;;;;;1.20;1.10;;;24.30;51.10;;;;;;221910;1270;23133;-56
2023/06/06 11:15:58;;;;;;;0.90;0.80;;;24.30;50.60;;;;;;222581;1269;22523;-52
2023/06/06 11:21:04;;;;;;;1.00;1.00;;;24.30;50.70;;;;;;222746;1263;25262;-52
2023/06/06 11:26:09;;;;;;;1.00;1.00;;;24.40;50.70;;;;;;222696;1268;22716;-52
2023/06/06 11:31:19;;;;;;;0.90;0.90;;;24.30;50.70;;;;;;222560;1268;25455;-53
2023/06/06 11:36:25;;;;;;;1.10;1.00;;;24.40;50.70;;;;;;222363;1268;22523;-54
2023/06/06 11:41:50;;;;;;;1.20;1.10;;;24.40;50.70;;;;;;222649;1268;22724;-55
2023/06/06 11:46:54;;;;;;;0.90;0.90;;;24.40;50.80;;;;;;222715;1266;22529;-53
2023/06/06 11:52:00;;;;;;;0.90;0.90;;;24.40;50.80;;;;;;222549;1268;24777;-54
2023/06/06 11:57:07;;;;;;;1.20;1.20;;;24.40;50.80;;;;;;222925;1263;22590;-53
2023/06/06 12:02:13;;;;;;;0.70;0.70;;;24.40;51.20;;;;;;222545;1267;25366;-52
2023/06/06 12:07:18;;;;;;;0.90;0.90;;;24.40;51.00;;;;;;222527;1264;22718;-57
2023/06/06 12:12:23;;;;;;;1.00;1.00;;;24.40;51.20;;;;;;222428;1268;22514;-54
2023/06/06 12:17:29;;;;;;;1.00;0.90;;;24.40;51.60;;;;;;222249;1268;22624;-54
2023/06/06 12:22:35;;;;;;;0.90;0.90;;;24.40;51.50;;;;;;222332;1268;22636;-56
2023/06/06 12:27:39;;;;;;;0.90;0.90;;;24.40;50.80;;;;;;222767;1268;22533;-53
2023/06/06 12:32:53;;;;;;;1.00;1.00;;;24.50;50.90;;;;;;222374;1269;23881;-52
2023/06/06 12:37:58;;;;;;;0.90;0.90;;;24.50;50.90;;;;;;222297;1269;22630;-53
2023/06/06 12:43:06;;;;;;;1.00;1.00;;;24.50;51.10;;;;;;222403;1269;26515;-53
2023/06/06 12:48:15;;;;;;;0.90;0.90;;;24.50;50.80;;;;;;222392;1269;22523;-54
2023/06/06 12:53:20;;;;;;;1.10;1.10;;;24.50;50.80;;;;;;222301;1269;24222;-53
2023/06/06 12:58:25;;;;;;;0.90;0.90;;;24.60;50.80;;;;;;222389;1269;22508;-53
2023/06/06 13:03:29;;;;;;;0.80;0.80;;;24.50;50.70;;;;;;222331;1269;24346;-52
2023/06/06 13:08:34;;;;;;;1.00;1.00;;;24.60;50.80;;;;;;222443;1264;22636;-52
2023/06/06 13:13:41;;;;;;;0.90;0.90;;;24.60;50.40;;;;;;222346;1264;23887;-54
2023/06/06 13:18:46;;;;;;;0.80;0.80;;;24.60;50.80;;;;;;222223;1269;22532;-54
2023/06/06 13:23:50;;;;;;;0.80;0.80;;;24.70;50.80;;;;;;222437;1266;22517;-53
2023/06/06 13:28:56;;;;;;;1.20;0.90;;;24.60;50.80;;;;;;222145;1269;24311;-55
2023/06/06 13:34:00;;;;;;;1.10;1.10;;;24.60;50.80;;;;;;222226;1268;22561;-52
2023/06/06 13:39:07;;;;;;;0.90;0.90;;;24.70;50.80;;;;;;222469;1268;25682;-54
2023/06/06 13:44:19;;;;;;;1.10;1.10;;;24.70;50.80;;;;;;222592;1268;25264;-51
2023/06/06 13:49:23;;;;;;;0.90;0.90;;;24.70;51.00;;;;;;222467;1268;25461;-55
2023/06/06 13:54:27;;;;;;;1.00;1.00;;;24.60;50.90;;;;;;222720;1268;22614;-51
2023/06/06 13:59:32;;;;;;;0.80;0.80;;;24.60;51.00;;;;;;222594;1268;25146;-53
2023/06/06 14:04:36;;;;;;;0.90;0.90;;;24.60;51.20;;;;;;222528;1268;22551;-56
2023/06/06 14:09:41;;;;;;;1.10;1.00;;;24.60;50.90;;;;;;222486;1266;22623;-53
2023/06/06 14:14:47;;;;;;;1.30;1.00;;;24.70;51.60;;;;;;222080;1268;461735;-51
2023/06/06 14:19:53;;;;;;;0.80;0.80;;;24.60;51.10;;;;;;222548;1268;25563;-52
2023/06/06 14:24:58;;;;;;;1.30;0.90;;;24.60;51.00;;;;;;222519;1268;22636;-52
2023/06/06 14:30:05;;;;;;;0.90;0.90;;;24.60;51.10;;;;;;222524;1268;22540;-51
2023/06/06 14:35:10;;;;;;;0.80;0.80;;;24.60;50.80;;;;;;222399;1255;22514;-53
2023/06/06 14:40:14;;;;;;;1.10;1.00;;;24.60;51.20;;;;;;222547;1267;22631;-56
2023/06/06 14:45:19;;;;;;;1.10;1.00;;;24.60;51.00;;;;;;222063;1269;22570;-52
2023/06/06 14:50:23;;;;;;;1.10;1.00;;;24.60;51.60;;;;;;222271;1269;22514;-55
2023/06/06 14:55:27;;;;;;;1.30;1.00;;;24.60;51.20;;;;;;222380;1269;22619;-55
2023/06/06 15:00:32;;;;;;;0.80;0.80;;;24.60;50.90;;;;;;222290;1268;22520;-54
2023/06/06 15:05:37;;;;;;;1.00;0.90;;;24.60;51.20;;;;;;222551;1267;22518;-58
2023/06/06 15:10:41;;;;;;;1.10;1.00;;;24.60;51.60;;;;;;222417;1266;24358;-55
2023/06/06 15:15:45;;;;;;;0.70;0.70;;;24.60;51.30;;;;;;222295;1268;22525;-54
2023/06/06 15:20:50;;;;;;;0.80;0.80;;;24.60;51.30;;;;;;222505;1267;22518;-54
2023/06/06 15:25:55;;;;;;;1.00;1.00;;;24.60;51.30;;;;;;222550;1267;22531;-51
2023/06/06 15:31:00;;;;;;;1.10;1.10;;;24.60;51.30;;;;;;222732;1268;22630;-51
2023/06/06 15:36:04;;;;;;;0.80;0.80;;;24.60;51.70;;;;;;222634;1268;22656;-54
2023/06/06 15:41:09;;;;;;;1.20;1.10;;;24.60;51.30;;;;;;222585;1267;22503;-59
2023/06/06 15:46:13;;;;;;;1.00;0.90;;;24.60;51.30;;;;;;222419;1268;25313;-53
2023/06/06 15:51:18;;;;;;;1.10;0.80;;;24.60;51.30;;;;;;222676;1268;25473;-55
2023/06/06 15:56:22;;;;;;;1.10;0.80;;;24.60;51.40;;;;;;222507;1265;22508;-49
2023/06/06 16:01:28;;;;;;;0.90;0.90;;;24.60;51.40;;;;;;222590;1268;24176;-55
2023/06/06 16:06:32;;;;;;;0.80;0.80;;;24.60;51.40;;;;;;222958;1260;22510;-58
2023/06/06 16:11:36;;;;;;;0.80;0.80;;;24.60;51.50;;;;;;222571;1268;24057;-54
2023/06/06 16:16:40;;;;;;;0.80;0.80;;;24.50;51.60;;;;;;222692;1268;22525;-54
2023/06/06 16:21:45;;;;;;;0.80;0.80;;;24.50;51.00;;;;;;222601;1268;22512;-55
2023/06/06 16:26:50;;;;;;;1.00;1.00;;;24.60;52.00;;;;;;222604;1268;24184;-58
2023/06/06 16:31:55;;;;;;;1.20;1.10;;;24.50;51.60;;;;;;222388;1268;23139;-55
2023/06/06 16:36:59;;;;;;;0.80;0.80;;;24.50;51.70;;;;;;222421;1268;22532;-53
2023/06/06 16:42:05;;;;;;;0.70;0.70;;;24.50;51.80;;;;;;222579;1268;24145;-53
2023/06/06 16:47:09;;;;;;;0.90;0.80;;;24.50;51.70;;;;;;222906;1261;22589;-53
2023/06/06 16:52:13;;;;;;;0.70;0.70;;;24.40;51.80;;;;;;222406;1268;24306;-55
2023/06/06 16:57:19;;;;;;;0.70;0.70;;;24.50;51.70;;;;;;222286;1269;22707;-54
2023/06/06 17:02:26;;;;;;;0.90;0.90;;;24.50;51.70;;;;;;222173;1269;22647;-53
2023/06/06 17:07:31;;;;;;;0.90;0.90;;;24.50;51.70;;;;;;222218;1269;22636;-54
2023/06/06 17:12:35;;;;;;;1.20;1.10;;;24.40;51.80;;;;;;222318;1269;22524;-54
2023/06/06 17:17:39;;;;;;;1.10;0.90;;;24.40;52.50;;;;;;222663;1265;25385;-51
2023/06/06 17:22:44;;;;;;;1.30;0.80;;;24.40;51.90;;;;;;222318;1265;22534;-57
2023/06/06 17:27:48;;;;;;;0.70;0.70;;;24.40;52.00;;;;;;222278;1269;24177;-54
2023/06/06 17:32:52;;;;;;;1.00;1.00;;;24.40;52.00;;;;;;222436;1267;22501;-54
2023/06/06 17:37:56;;;;;;;1.20;0.90;;;24.40;52.00;;;;;;222463;1268;25375;-52
2023/06/06 17:43:01;;;;;;;0.70;0.70;;;24.30;51.90;;;;;;222426;1268;22523;-53
2023/06/06 17:48:05;;;;;;;0.90;0.90;;;24.30;51.90;;;;;;222648;1268;24190;-57
2023/06/06 17:53:10;;;;;;;1.00;0.90;;;24.40;52.00;;;;;;222575;1268;22804;-57
2023/06/06 17:58:14;;;;;;;1.00;1.00;;;24.30;51.90;;;;;;222678;1268;24813;-53
2023/06/06 18:03:19;;;;;;;0.70;0.70;;;24.30;52.00;;;;;;222457;1268;25221;-53
2023/06/06 18:08:23;;;;;;;0.90;0.90;;;24.30;52.00;;;;;;222580;1268;23914;-52
2023/06/06 18:13:27;;;;;;;0.90;0.90;;;24.30;52.00;;;;;;222363;1268;22695;-56
2023/06/06 18:18:32;;;;;;;0.80;0.80;;;24.30;52.00;;;;;;222441;1268;25268;-50
2023/06/06 18:23:36;;;;;;;1.00;1.00;;;24.30;52.00;;;;;;222615;1268;22521;-55
2023/06/06 18:28:40;;;;;;;1.00;0.90;;;24.30;52.50;;;;;;222366;1268;25667;-54
2023/06/06 18:33:44;;;;;;;1.80;1.10;;;24.30;52.00;;;;;;222583;1269;22647;-54
2023/06/06 18:38:49;;;;;;;0.90;0.90;;;24.30;52.30;;;;;;222355;1269;24012;-53
2023/06/06 18:43:53;;;;;;;1.00;0.90;;;24.30;52.00;;;;;;222372;1269;25332;-54
2023/06/06 18:48:57;;;;;;;1.90;0.90;;;24.30;52.10;;;;;;222260;1269;22721;-55
2023/06/06 18:54:02;;;;;;;1.50;1.10;;;24.30;52.30;;;;;;222305;1269;22808;-52
2023/06/06 18:59:07;;;;;;;1.10;1.00;;;24.30;52.00;;;;;;222261;1269;22580;-50
2023/06/06 19:04:13;;;;;;;0.70;0.70;;;24.30;52.30;;;;;;222184;1269;24160;-51
2023/06/06 19:09:19;;;;;;;0.70;0.70;;;24.30;52.00;;;;;;222220;1269;24039;-56
2023/06/06 19:14:24;;;;;;;0.90;0.90;;;24.30;52.10;;;;;;222391;1265;22654;-52
2023/06/06 19:19:28;;;;;;;1.00;0.80;;;24.30;52.20;;;;;;222368;1267;22593;-55
2023/06/06 19:24:33;;;;;;;0.70;0.70;;;24.20;52.10;;;;;;222284;1269;25224;-52
2023/06/06 19:29:37;;;;;;;1.00;0.90;;;24.30;52.20;;;;;;222266;1268;23878;-52
2023/06/06 19:34:41;;;;;;;1.10;1.10;;;24.20;52.10;;;;;;222477;1257;24334;-48
2023/06/06 19:39:48;;;;;;;1.20;1.10;;;24.20;51.80;;;;;;222663;1268;24207;-55
2023/06/06 19:44:53;;;;;;;0.90;0.90;;;24.20;52.20;;;;;;223103;1265;22627;-54
2023/06/06 19:49:57;;;;;;;1.40;1.00;;;24.20;52.60;;;;;;222787;1268;24270;-53
2023/06/06 19:55:04;;;;;;;1.50;1.30;;;24.20;52.30;;;;;;222739;1265;22585;-56
2023/06/06 20:00:09;;;;;;;1.00;0.90;;;24.20;52.60;;;;;;222752;1268;22643;-54
2023/06/06 20:05:16;;;;;;;1.90;1.80;;;24.20;52.30;;;;;;223052;1262;24630;-50
2023/06/06 20:10:23;;;;;;;1.30;1.20;;;24.20;52.30;;;;;;222990;1265;22560;-54
2023/06/06 20:15:27;;;;;;;1.60;1.50;;;24.20;52.60;;;;;;223082;1266;22593;-55
2023/06/06 20:20:34;;;;;;;1.60;1.50;;;24.20;52.90;;;;;;222786;1268;22514;-52
2023/06/06 20:25:55;;;;;;;1.80;1.40;;;24.20;52.30;;;;;;222972;1265;22528;-53
2023/06/06 20:31:02;;;;;;;1.50;1.40;;;24.20;52.70;;;;;;223134;1269;25609;-50
2023/06/06 20:36:08;;;;;;;1.20;1.20;;;24.20;52.30;;;;;;222651;1269;22525;-52
2023/06/06 20:41:12;;;;;;;1.50;1.40;;;24.30;52.70;;;;;;222718;1267;22507;-52
2023/06/06 20:46:17;;;;;;;1.30;1.20;;;24.20;52.70;;;;;;222671;1269;22569;-53
2023/06/06 20:51:22;;;;;;;1.50;1.40;;;24.20;53.00;;;;;;222909;1266;22725;-52
2023/06/06 20:56:26;;;;;;;1.30;1.20;;;24.20;52.50;;;;;;222555;1269;22634;-53
2023/06/06 21:01:31;;;;;;;1.30;1.20;;;24.10;52.30;;;;;;222368;1268;22535;-50
2023/06/06 21:06:36;;;;;;;1.30;1.20;;;24.20;52.50;;;;;;222830;1269;24232;-49
2023/06/06 21:11:42;;;;;;;1.20;1.10;;;24.10;52.50;;;;;;222997;1258;23753;-51
2023/06/06 21:16:47;;;;;;;1.70;1.60;;;24.10;52.90;;;;;;222529;1269;23430;-52
2023/06/06 21:21:51;;;;;;;1.30;1.20;;;24.10;52.50;;;;;;222064;1269;25446;-54
2023/06/06 21:26:55;;;;;;;1.60;1.50;;;24.10;52.60;;;;;;222079;1269;22504;-51
2023/06/06 21:32:00;;;;;;;1.40;1.30;;;24.10;52.60;;;;;;222084;1268;22508;-55
2023/06/06 21:37:04;;;;;;;1.50;1.40;;;24.10;52.60;;;;;;222683;1265;24200;-55
2023/06/06 21:42:09;;;;;;;1.70;1.40;;;24.10;52.60;;;;;;222568;1268;25473;-53
2023/06/06 21:47:13;;;;;;;1.30;1.20;;;24.10;52.60;;;;;;222319;1268;25660;-54
2023/06/06 21:52:18;;;;;;;1.90;1.70;;;24.10;52.70;;;;;;222457;1268;25227;-54
2023/06/06 21:57:22;;;;;;;1.40;1.30;;;24.10;52.80;;;;;;222581;1268;22508;-53
2023/06/06 22:02:26;;;;;;;1.70;1.60;;;24.10;52.70;;;;;;222637;1267;22510;-52
2023/06/06 22:07:31;;;;;;;1.30;1.30;;;24.10;52.20;;;;;;222451;1268;22554;-53
2023/06/06 22:12:35;;;;;;;1.40;1.30;;;24.10;52.80;;;;;;222666;1267;24171;-55
2023/06/06 22:17:39;;;;;;;1.20;1.10;;;24.10;52.80;;;;;;222573;1268;22514;-53
2023/06/06 22:22:43;;;;;;;1.70;1.60;;;24.10;53.10;;;;;;222397;1268;22510;-52
2023/06/06 22:27:47;;;;;;;1.60;1.40;;;24.10;52.90;;;;;;222486;1267;22510;-53
2023/06/06 22:32:52;;;;;;;1.50;1.40;;;24.10;52.50;;;;;;222510;1246;23881;-52
2023/06/06 22:37:56;;;;;;;1.60;1.50;;;24.10;52.90;;;;;;222437;1268;22516;-53
2023/06/06 22:43:00;;;;;;;1.50;1.40;;;24.10;52.90;;;;;;222615;1268;25423;-55
2023/06/06 22:48:05;;;;;;;1.50;1.40;;;24.00;52.90;;;;;;222606;1268;22505;-55
2023/06/06 22:53:09;;;;;;;1.60;1.50;;;24.00;52.90;;;;;;222630;1266;23878;-55
2023/06/06 22:58:14;;;;;;;1.50;1.40;;;24.00;53.00;;;;;;222571;1263;25252;-52
2023/06/06 23:03:18;;;;;;;1.20;1.20;;;24.00;53.10;;;;;;222489;1262;24292;-53
2023/06/06 23:08:23;;;;;;;1.30;1.20;;;24.00;53.00;;;;;;222396;1268;24393;-53
2023/06/06 23:13:27;;;;;;;1.70;1.60;;;24.00;53.00;;;;;;222621;1268;22511;-50
2023/06/06 23:18:31;;;;;;;1.80;1.70;;;24.00;53.40;;;;;;222421;1268;22638;-51
2023/06/06 23:23:36;;;;;;;1.60;1.40;;;24.00;53.00;;;;;;222550;1268;25374;-53
2023/06/06 23:28:40;;;;;;;1.60;1.50;;;24.00;53.00;;;;;;222837;1268;22623;-54
2023/06/06 23:33:44;;;;;;;1.30;1.20;;;24.00;53.40;;;;;;222305;1268;23945;-52
2023/06/06 23:38:49;;;;;;;1.50;1.40;;;23.90;53.00;;;;;;222441;1268;25462;-54
2023/06/06 23:43:53;;;;;;;1.50;1.40;;;24.00;53.10;;;;;;222727;1268;22764;-57
2023/06/06 23:48:58;;;;;;;1.90;1.50;;;24.00;53.10;;;;;;222656;1268;24211;-56
2023/06/06 23:54:02;;;;;;;1.70;1.50;;;23.90;53.00;;;;;;222633;1267;22808;-56
2023/06/06 23:59:06;;;;;;;1.60;1.50;;;23.90;53.10;;;;;;222337;1268;22520;-52
